Time;durP1;ratioP1;P1;durP2;ratioP2;P2;SDS_P1;SDS_P2;PMS_P1;PMS_P2;Temp;Humidity;BMP_temperature;BMP_pressure;BME280_temperature;BME280_humidity;BME280_pressure;Samples;Min_cycle;Max_cycle;Signal;HPM_P1;HPM_P2
2024/03/21 00:02:04;;;;;;;13.33;7.97;;;12.00;99.90;;;;;;818554;174;26394;-82
2024/03/21 00:04:31;;;;;;;16.03;8.50;;;12.00;99.90;;;;;;812735;173;26397;-82
2024/03/21 00:06:58;;;;;;;22.10;8.70;;;11.90;99.90;;;;;;814971;173;26425;-83
2024/03/21 00:09:24;;;;;;;13.13;8.20;;;11.80;99.90;;;;;;811983;173;26417;-81
2024/03/21 00:11:51;;;;;;;18.00;8.93;;;11.80;99.90;;;;;;823420;173;26957;-83
2024/03/21 00:14:17;;;;;;;19.47;11.40;;;11.80;99.90;;;;;;812925;174;26389;-81
2024/03/21 00:16:44;;;;;;;17.23;10.07;;;11.70;99.90;;;;;;819622;174;26434;-82
2024/03/21 00:19:11;;;;;;;15.30;9.60;;;11.60;99.90;;;;;;815082;173;26421;-80
2024/03/21 00:21:38;;;;;;;15.00;10.47;;;11.60;99.90;;;;;;821179;172;26954;-81
2024/03/21 00:24:17;;;;;;;13.87;9.47;;;11.60;99.90;;;;;;832755;170;26368;-81
2024/03/21 00:26:44;;;;;;;15.07;10.37;;;11.50;99.90;;;;;;825538;171;26413;-82
2024/03/21 00:29:10;;;;;;;17.10;10.17;;;11.50;99.90;;;;;;810916;176;26413;-82
2024/03/21 00:31:38;;;;;;;16.50;10.87;;;11.50;99.90;;;;;;818116;173;26572;-80
2024/03/21 00:34:03;;;;;;;16.73;11.00;;;11.40;99.90;;;;;;818795;173;26992;-82
2024/03/21 00:36:30;;;;;;;20.60;11.17;;;11.60;99.90;;;;;;824982;174;26408;-85
2024/03/21 00:38:57;;;;;;;19.43;12.37;;;11.60;99.90;;;;;;823464;172;26425;-82
2024/03/21 00:41:24;;;;;;;17.97;11.47;;;11.60;99.90;;;;;;809557;174;26645;-81
2024/03/21 00:43:50;;;;;;;16.33;11.33;;;11.50;99.90;;;;;;813144;173;26401;-81
2024/03/21 00:46:17;;;;;;;16.00;9.73;;;11.50;99.90;;;;;;819291;174;26431;-80
2024/03/21 00:48:44;;;;;;;18.13;10.40;;;11.40;99.90;;;;;;808113;174;26535;-80
2024/03/21 00:51:10;;;;;;;16.50;10.43;;;11.30;99.90;;;;;;821197;174;26406;-79
2024/03/21 00:53:36;;;;;;;17.87;10.37;;;11.40;99.90;;;;;;822380;174;26399;-82
2024/03/21 00:56:03;;;;;;;17.97;10.57;;;11.40;99.90;;;;;;810938;174;27032;-83
2024/03/21 00:58:30;;;;;;;20.17;10.87;;;11.30;99.90;;;;;;813255;174;26396;-80
2024/03/21 01:00:56;;;;;;;15.97;11.23;;;11.30;99.90;;;;;;814394;174;26397;-81
2024/03/21 01:03:23;;;;;;;21.37;11.43;;;11.20;99.90;;;;;;809600;177;26670;-84
2024/03/21 01:05:57;;;;;;;20.10;13.23;;;11.10;99.90;;;;;;814378;174;26382;-85
2024/03/21 01:08:23;;;;;;;22.73;13.47;;;11.10;99.90;;;;;;812379;174;26394;-83
2024/03/21 01:10:50;;;;;;;22.20;13.63;;;11.20;99.90;;;;;;814854;175;26379;-85
2024/03/21 01:13:16;;;;;;;24.13;14.43;;;11.30;99.90;;;;;;810303;175;26387;-83
2024/03/21 01:15:43;;;;;;;54.17;24.87;;;11.40;99.90;;;;;;820145;174;26398;-83
2024/03/21 01:18:09;;;;;;;37.13;20.63;;;11.50;99.90;;;;;;817199;175;26772;-83
2024/03/21 01:20:40;;;;;;;160.63;70.77;;;11.60;99.90;;;;;;813668;174;26432;-82
2024/03/21 01:23:03;;;;;;;86.93;42.57;;;11.70;99.90;;;;;;819724;174;26414;-82
2024/03/21 01:25:30;;;;;;;64.50;33.50;;;11.80;99.90;;;;;;834210;170;26561;-84
2024/03/21 01:27:58;;;;;;;32.33;19.90;;;11.80;99.90;;;;;;835158;171;26546;-85
2024/03/21 01:30:23;;;;;;;37.93;21.33;;;11.80;99.90;;;;;;834719;171;26392;-84
2024/03/21 01:32:49;;;;;;;28.83;15.67;;;11.80;99.90;;;;;;828776;172;26452;-82
2024/03/21 01:35:16;;;;;;;30.57;16.07;;;11.70;99.90;;;;;;825229;171;26393;-82
2024/03/21 01:37:43;;;;;;;26.03;14.47;;;11.70;99.90;;;;;;829674;171;26416;-81
2024/03/21 01:40:11;;;;;;;29.27;15.33;;;11.70;99.90;;;;;;817283;172;26403;-81
2024/03/21 01:42:39;;;;;;;31.87;19.07;;;11.70;99.90;;;;;;827761;172;26424;-82
2024/03/21 01:45:05;;;;;;;41.27;23.07;;;11.70;99.90;;;;;;833827;171;26408;-84
2024/03/21 01:47:31;;;;;;;27.53;17.47;;;11.60;99.90;;;;;;829370;171;26404;-81
2024/03/21 01:49:58;;;;;;;32.10;17.80;;;11.60;99.90;;;;;;828508;170;26400;-83
2024/03/21 01:52:24;;;;;;;28.57;16.00;;;11.60;99.90;;;;;;832755;172;26408;-82
2024/03/21 01:54:51;;;;;;;28.53;15.37;;;11.50;99.90;;;;;;831583;172;26416;-82
2024/03/21 01:57:17;;;;;;;27.93;15.30;;;11.50;99.90;;;;;;830113;171;26404;-83
2024/03/21 01:59:44;;;;;;;27.07;16.07;;;11.50;99.90;;;;;;834690;171;26404;-82
2024/03/21 02:02:11;;;;;;;24.93;15.70;;;11.40;99.90;;;;;;831607;171;26425;-83
2024/03/21 02:04:37;;;;;;;23.80;15.20;;;11.40;99.90;;;;;;833293;171;26439;-82
2024/03/21 02:07:04;;;;;;;24.93;15.33;;;11.40;99.90;;;;;;824997;171;26423;-84
2024/03/21 02:09:31;;;;;;;26.60;16.13;;;11.40;99.90;;;;;;830627;171;26412;-82
2024/03/21 02:12:12;;;;;;;24.47;15.27;;;11.40;99.90;;;;;;822715;172;26400;-82
2024/03/21 02:14:38;;;;;;;26.00;15.73;;;11.30;99.90;;;;;;837676;171;26376;-83
2024/03/21 02:17:05;;;;;;;28.67;16.47;;;11.30;99.90;;;;;;824662;172;26412;-82
2024/03/21 02:19:32;;;;;;;27.10;15.63;;;11.30;99.90;;;;;;832067;172;26400;-82
2024/03/21 02:24:31;;;;;;;20.23;15.47;;;11.30;99.90;;;;;;824615;172;26394;-80
2024/03/21 02:26:57;;;;;;;23.87;15.77;;;11.30;99.90;;;;;;833437;171;26448;-83
2024/03/21 02:29:24;;;;;;;28.57;15.13;;;11.30;99.90;;;;;;833721;172;26419;-81
2024/03/21 02:31:50;;;;;;;24.77;16.10;;;11.20;99.90;;;;;;826052;171;26731;-80
2024/03/21 02:34:17;;;;;;;27.67;16.30;;;11.10;99.90;;;;;;826799;171;26572;-82
2024/03/21 02:36:44;;;;;;;24.17;16.53;;;11.00;99.90;;;;;;829532;172;27028;-81
2024/03/21 02:39:10;;;;;;;26.57;17.63;;;11.00;99.90;;;;;;827971;171;26419;-81
2024/03/21 02:41:37;;;;;;;27.80;16.90;;;10.90;99.90;;;;;;830992;171;27599;-81
2024/03/21 02:44:03;;;;;;;26.70;17.60;;;10.90;99.90;;;;;;830604;171;26409;-82
2024/03/21 02:46:38;;;;;;;29.40;17.73;;;10.80;99.90;;;;;;833325;171;26412;-82
2024/03/21 02:49:04;;;;;;;29.07;17.20;;;10.80;99.90;;;;;;795040;179;26441;-80
2024/03/21 02:51:30;;;;;;;28.20;16.33;;;11.00;99.90;;;;;;791408;180;26590;-77
2024/03/21 02:53:57;;;;;;;30.50;17.40;;;11.10;99.90;;;;;;790228;180;26597;-79
2024/03/21 02:56:24;;;;;;;28.00;17.17;;;11.20;99.90;;;;;;787435;180;27024;-80
2024/03/21 02:58:50;;;;;;;27.00;17.37;;;11.20;99.90;;;;;;786141;180;26489;-80
2024/03/21 03:01:17;;;;;;;30.20;18.53;;;11.10;99.90;;;;;;789246;178;28045;-79
2024/03/21 03:03:43;;;;;;;28.33;20.60;;;11.20;99.90;;;;;;785992;180;26506;-81
2024/03/21 03:06:10;;;;;;;28.23;19.10;;;11.30;99.90;;;;;;788791;180;27043;-80
2024/03/21 03:08:37;;;;;;;32.87;20.23;;;11.40;99.90;;;;;;788032;180;26492;-79
2024/03/21 03:11:03;;;;;;;32.50;20.33;;;11.50;99.90;;;;;;784203;180;26600;-79
2024/03/21 03:13:30;;;;;;;34.10;20.50;;;11.60;99.90;;;;;;784138;181;26459;-79
2024/03/21 03:15:56;;;;;;;36.33;20.13;;;11.60;99.90;;;;;;784232;182;26464;-79
2024/03/21 03:18:23;;;;;;;37.43;21.80;;;11.70;99.90;;;;;;783791;183;26489;-79
2024/03/21 03:20:50;;;;;;;28.83;21.10;;;11.60;99.90;;;;;;784162;181;26456;-78
2024/03/21 03:23:16;;;;;;;35.13;21.80;;;11.60;99.90;;;;;;785012;183;26587;-79
2024/03/21 03:25:43;;;;;;;38.57;22.40;;;11.70;99.90;;;;;;783417;182;26497;-78
2024/03/21 03:28:09;;;;;;;38.87;25.37;;;11.60;99.90;;;;;;784976;183;26467;-79
2024/03/21 03:30:36;;;;;;;40.53;26.33;;;11.60;99.90;;;;;;785487;182;26474;-80
2024/03/21 03:35:49;;;;;;;41.50;25.10;;;11.70;99.90;;;;;;782876;181;26442;-78
2024/03/21 03:38:15;;;;;;;43.83;25.53;;;11.70;99.90;;;;;;786359;182;27652;-79
2024/03/21 03:40:42;;;;;;;39.63;25.17;;;11.60;99.90;;;;;;784486;179;26467;-78
2024/03/21 03:43:08;;;;;;;41.53;27.63;;;11.60;99.90;;;;;;786887;179;26625;-79
2024/03/21 03:45:34;;;;;;;39.87;27.40;;;11.70;99.90;;;;;;786488;179;26451;-78
2024/03/21 03:48:01;;;;;;;42.30;28.13;;;11.70;99.90;;;;;;784149;180;26457;-78
2024/03/21 03:50:28;;;;;;;45.60;30.53;;;11.70;99.90;;;;;;782830;182;26448;-78
2024/03/21 03:52:54;;;;;;;47.30;31.17;;;11.70;99.90;;;;;;788972;179;26470;-81
2024/03/21 03:55:21;;;;;;;51.60;32.17;;;11.70;99.90;;;;;;786310;177;26574;-80
2024/03/21 03:57:47;;;;;;;50.03;33.27;;;11.70;99.90;;;;;;787078;179;26464;-81
2024/03/21 04:00:14;;;;;;;60.00;33.30;;;11.70;99.90;;;;;;789969;178;26572;-80
2024/03/21 04:02:43;;;;;;;62.07;34.93;;;11.70;99.90;;;;;;794135;176;26597;-80
2024/03/21 04:05:09;;;;;;;62.23;35.63;;;11.70;99.90;;;;;;786715;179;26448;-79
2024/03/21 04:07:34;;;;;;;55.63;35.00;;;11.70;99.90;;;;;;782829;182;26456;-78
2024/03/21 04:10:01;;;;;;;62.73;37.50;;;11.70;99.90;;;;;;785384;179;26444;-78
2024/03/21 04:12:27;;;;;;;54.87;37.17;;;11.70;99.90;;;;;;791289;176;26473;-78
2024/03/21 04:14:54;;;;;;;60.90;38.33;;;11.70;99.90;;;;;;780803;180;26451;-78
2024/03/21 04:17:20;;;;;;;62.07;38.07;;;11.60;99.90;;;;;;784921;180;26460;-79
2024/03/21 04:19:47;;;;;;;63.83;39.77;;;11.50;99.90;;;;;;780294;180;26778;-80
2024/03/21 04:22:14;;;;;;;62.57;40.67;;;11.50;99.90;;;;;;788136;177;26589;-79
2024/03/21 04:24:41;;;;;;;72.57;41.83;;;11.40;99.90;;;;;;796161;176;26467;-80
2024/03/21 04:27:07;;;;;;;74.63;43.57;;;11.50;99.90;;;;;;790541;179;26471;-78
2024/03/21 04:29:33;;;;;;;68.17;41.47;;;11.40;99.90;;;;;;795025;177;27334;-79
2024/03/21 04:32:00;;;;;;;65.07;42.63;;;11.40;99.90;;;;;;776696;183;26483;-79
2024/03/21 04:34:26;;;;;;;72.27;43.43;;;11.50;99.90;;;;;;786877;177;26452;-78
2024/03/21 04:36:53;;;;;;;75.20;44.17;;;11.50;99.90;;;;;;778629;181;26454;-79
2024/03/21 04:39:20;;;;;;;67.87;43.43;;;11.50;99.90;;;;;;784521;178;26502;-79
2024/03/21 04:41:47;;;;;;;76.87;45.07;;;11.50;99.90;;;;;;782585;180;26477;-80
2024/03/21 04:44:14;;;;;;;77.57;46.40;;;11.50;99.90;;;;;;784492;180;26587;-80
2024/03/21 04:46:41;;;;;;;69.07;45.53;;;11.50;99.90;;;;;;788725;177;26447;-80
2024/03/21 04:49:07;;;;;;;75.50;43.80;;;11.50;99.90;;;;;;787988;177;26449;-81
2024/03/21 04:51:34;;;;;;;77.30;44.93;;;11.50;99.90;;;;;;789459;177;26466;-79
2024/03/21 04:54:00;;;;;;;78.33;46.17;;;11.60;99.90;;;;;;792427;177;26456;-79
2024/03/21 04:56:27;;;;;;;84.03;48.30;;;11.60;99.90;;;;;;787808;177;26613;-79
2024/03/21 04:58:53;;;;;;;78.93;48.30;;;11.70;99.90;;;;;;793493;180;26466;-79
2024/03/21 05:01:20;;;;;;;80.23;47.40;;;11.70;99.90;;;;;;787229;177;26463;-80
2024/03/21 05:03:47;;;;;;;77.73;47.67;;;11.70;99.90;;;;;;794077;177;26491;-80
2024/03/21 05:06:13;;;;;;;83.83;47.53;;;11.70;99.90;;;;;;783897;179;26602;-80
2024/03/21 05:08:40;;;;;;;80.37;48.20;;;11.60;99.90;;;;;;779313;178;26486;-80
2024/03/21 05:11:06;;;;;;;79.80;47.70;;;11.70;99.90;;;;;;798574;176;26470;-79
2024/03/21 05:13:33;;;;;;;80.13;47.67;;;11.60;99.90;;;;;;797084;178;26439;-80
2024/03/21 05:15:59;;;;;;;79.57;46.80;;;11.60;99.90;;;;;;791707;177;26438;-79
2024/03/21 05:18:26;;;;;;;88.27;47.67;;;11.60;99.90;;;;;;781078;180;26472;-79
2024/03/21 05:20:53;;;;;;;78.93;48.97;;;11.60;99.90;;;;;;787885;181;26464;-78
2024/03/21 05:23:19;;;;;;;77.37;46.40;;;11.60;99.90;;;;;;786131;179;26597;-80
2024/03/21 05:25:46;;;;;;;82.57;47.43;;;11.70;99.90;;;;;;785701;180;26604;-79
2024/03/21 05:28:12;;;;;;;79.20;44.53;;;11.60;99.90;;;;;;785368;179;26479;-79
2024/03/21 05:30:39;;;;;;;88.37;47.20;;;11.60;99.90;;;;;;787370;179;26460;-79
2024/03/21 05:33:08;;;;;;;83.97;45.97;;;11.70;99.90;;;;;;786717;179;26515;-80
2024/03/21 05:35:32;;;;;;;85.80;47.03;;;11.70;99.90;;;;;;786555;179;26472;-78
2024/03/21 05:37:59;;;;;;;78.70;45.13;;;11.70;99.90;;;;;;786129;179;26519;-80
2024/03/21 05:40:25;;;;;;;78.77;46.03;;;11.60;99.90;;;;;;787060;179;26455;-79
2024/03/21 05:42:52;;;;;;;82.50;43.13;;;11.60;99.90;;;;;;791311;176;26457;-79
2024/03/21 05:45:19;;;;;;;83.23;46.00;;;11.60;99.90;;;;;;790515;177;26450;-79
2024/03/21 05:47:45;;;;;;;76.43;44.43;;;11.60;99.90;;;;;;785691;178;26469;-79
2024/03/21 05:50:12;;;;;;;81.73;44.27;;;11.70;99.90;;;;;;782651;178;26624;-79
2024/03/21 05:52:39;;;;;;;79.10;45.10;;;11.60;99.90;;;;;;781451;182;27025;-79
2024/03/21 05:55:05;;;;;;;76.93;42.83;;;11.60;99.90;;;;;;786104;180;26445;-79
2024/03/21 05:57:32;;;;;;;91.77;46.93;;;11.50;99.90;;;;;;787541;179;26472;-78
2024/03/21 05:59:58;;;;;;;85.17;45.20;;;11.40;99.90;;;;;;787612;177;26443;-80
2024/03/21 06:02:25;;;;;;;86.03;46.57;;;11.40;99.90;;;;;;780168;184;26468;-78
2024/03/21 06:04:52;;;;;;;84.97;47.10;;;11.40;99.90;;;;;;782619;183;26499;-79
2024/03/21 06:07:18;;;;;;;78.97;44.93;;;11.40;99.90;;;;;;794525;178;26484;-79
2024/03/21 06:09:45;;;;;;;83.27;45.53;;;11.30;99.90;;;;;;786729;180;26598;-78
2024/03/21 06:12:11;;;;;;;79.43;41.50;;;11.30;99.90;;;;;;789063;177;26460;-78
2024/03/21 06:14:38;;;;;;;77.80;42.67;;;11.30;99.90;;;;;;776391;183;26469;-80
2024/03/21 06:17:05;;;;;;;81.70;43.73;;;11.30;99.90;;;;;;785268;177;26473;-79
2024/03/21 06:19:31;;;;;;;82.27;47.50;;;11.30;99.90;;;;;;791103;178;26459;-80
2024/03/21 06:21:58;;;;;;;81.03;44.20;;;11.30;99.90;;;;;;792649;175;26480;-79
2024/03/21 06:24:24;;;;;;;80.37;42.60;;;11.30;99.90;;;;;;795262;176;26447;-80
2024/03/21 06:26:51;;;;;;;82.33;46.03;;;11.30;99.90;;;;;;779792;181;26457;-79
2024/03/21 06:29:17;;;;;;;83.03;44.60;;;11.30;99.90;;;;;;790618;178;26993;-79
2024/03/21 06:31:44;;;;;;;87.50;47.87;;;11.30;99.90;;;;;;787783;178;26456;-78
2024/03/21 06:34:11;;;;;;;74.73;43.50;;;11.30;99.90;;;;;;791094;179;26463;-79
2024/03/21 06:36:37;;;;;;;73.17;42.73;;;11.40;99.90;;;;;;785349;183;26767;-79
2024/03/21 06:39:04;;;;;;;74.50;42.53;;;11.50;99.90;;;;;;780694;182;26581;-79
2024/03/21 06:41:31;;;;;;;70.40;42.50;;;11.60;99.90;;;;;;790351;180;26479;-79
2024/03/21 06:43:57;;;;;;;68.87;40.33;;;11.70;99.90;;;;;;785981;177;26464;-79
2024/03/21 06:46:24;;;;;;;70.90;39.13;;;11.70;99.90;;;;;;787031;180;26470;-79
2024/03/21 06:48:50;;;;;;;68.33;38.80;;;11.70;99.90;;;;;;787325;180;26473;-79
2024/03/21 06:51:17;;;;;;;65.47;37.27;;;11.70;99.90;;;;;;792435;179;26464;-79
2024/03/21 06:53:44;;;;;;;61.63;37.47;;;11.70;99.90;;;;;;788738;180;26486;-78
2024/03/21 06:56:10;;;;;;;69.57;38.87;;;11.80;99.90;;;;;;789261;180;26499;-79
2024/03/21 06:58:37;;;;;;;64.67;36.93;;;11.80;99.90;;;;;;786520;177;26479;-78
2024/03/21 07:01:04;;;;;;;66.87;36.73;;;11.80;99.90;;;;;;788810;179;26500;-79
2024/03/21 07:03:31;;;;;;;60.87;37.63;;;11.80;99.90;;;;;;789616;180;26611;-78
2024/03/21 07:05:58;;;;;;;63.57;35.67;;;12.00;99.90;;;;;;783795;180;26985;-80
2024/03/21 07:08:24;;;;;;;67.50;36.57;;;12.00;99.90;;;;;;788645;180;26465;-80
2024/03/21 07:10:51;;;;;;;66.07;37.00;;;12.00;99.90;;;;;;792002;179;26505;-79
2024/03/21 07:13:18;;;;;;;59.30;35.63;;;11.90;99.90;;;;;;786155;179;26463;-81
2024/03/21 07:15:45;;;;;;;57.87;34.20;;;12.00;99.90;;;;;;783314;183;26628;-80
2024/03/21 07:18:11;;;;;;;64.57;37.33;;;12.10;99.90;;;;;;783777;180;27072;-80
2024/03/21 07:20:38;;;;;;;57.93;33.70;;;12.20;99.90;;;;;;783696;181;26503;-79
2024/03/21 07:23:05;;;;;;;63.90;36.60;;;12.30;99.90;;;;;;783584;181;26453;-79
2024/03/21 07:25:31;;;;;;;59.37;33.57;;;12.30;99.90;;;;;;784320;181;26502;-82
2024/03/21 07:27:58;;;;;;;53.37;32.00;;;12.50;99.90;;;;;;782557;182;27122;-80
2024/03/21 07:30:25;;;;;;;58.20;33.40;;;12.70;99.90;;;;;;783445;182;26454;-80
2024/03/21 07:32:52;;;;;;;64.37;35.67;;;12.70;99.90;;;;;;785711;180;26462;-81
2024/03/21 07:35:18;;;;;;;57.83;34.60;;;12.60;99.90;;;;;;776737;183;27018;-81
2024/03/21 07:37:45;;;;;;;63.47;36.27;;;12.60;99.90;;;;;;783624;182;26642;-83
2024/03/21 07:40:12;;;;;;;59.57;35.73;;;12.60;99.90;;;;;;781681;181;26491;-80
2024/03/21 07:42:38;;;;;;;56.07;36.70;;;12.70;99.90;;;;;;789823;180;26451;-79
2024/03/21 07:45:08;;;;;;;55.13;34.13;;;12.70;99.90;;;;;;777455;183;26495;-81
2024/03/21 07:47:32;;;;;;;57.03;36.20;;;12.70;99.90;;;;;;787494;180;26498;-79
2024/03/21 07:49:59;;;;;;;58.80;35.87;;;12.90;99.90;;;;;;786956;179;26582;-79
2024/03/21 07:52:27;;;;;;;64.20;37.47;;;12.70;99.90;;;;;;790518;180;26459;-79
2024/03/21 07:54:53;;;;;;;62.40;34.00;;;12.60;99.90;;;;;;785600;178;26487;-79
2024/03/21 07:57:20;;;;;;;63.43;39.83;;;12.60;99.90;;;;;;783998;182;26623;-80
2024/03/21 07:59:47;;;;;;;59.00;34.87;;;12.50;99.90;;;;;;779810;183;27001;-80
2024/03/21 08:02:14;;;;;;;60.80;36.80;;;12.40;99.90;;;;;;780244;182;27133;-80
2024/03/21 08:04:40;;;;;;;58.37;36.50;;;12.30;99.90;;;;;;782106;182;26478;-81
2024/03/21 08:07:26;;;;;;;64.47;37.90;;;12.50;99.90;;;;;;781485;182;26465;-81
2024/03/21 08:10:00;;;;;;;63.13;37.23;;;12.50;99.90;;;;;;786165;179;26605;-81
2024/03/21 08:12:33;;;;;;;62.00;36.97;;;12.40;99.90;;;;;;772156;183;27012;-81
2024/03/21 08:15:21;;;;;;;62.23;37.60;;;12.30;99.90;;;;;;780861;182;26451;-79
2024/03/21 08:17:47;;;;;;;67.43;37.97;;;12.40;99.90;;;;;;808465;172;26437;-80
2024/03/21 08:20:15;;;;;;;66.30;36.23;;;12.30;99.90;;;;;;823386;173;26451;-82
2024/03/21 08:22:42;;;;;;;68.77;39.63;;;12.20;99.90;;;;;;822928;175;26371;-81
2024/03/21 08:25:09;;;;;;;73.50;42.83;;;12.10;99.90;;;;;;823043;175;26435;-83
2024/03/21 08:27:35;;;;;;;74.37;40.40;;;11.90;99.90;;;;;;823061;174;26399;-79
2024/03/21 08:30:02;;;;;;;64.00;38.40;;;12.00;99.90;;;;;;823284;174;26550;-79
2024/03/21 08:32:29;;;;;;;66.57;39.53;;;12.00;99.90;;;;;;823182;175;26428;-82
2024/03/21 08:34:56;;;;;;;66.83;38.93;;;12.00;99.90;;;;;;823130;175;26406;-80
2024/03/21 08:37:23;;;;;;;65.33;35.70;;;12.10;99.90;;;;;;823031;174;26463;-79
2024/03/21 08:39:50;;;;;;;63.10;36.13;;;12.20;99.90;;;;;;821604;175;26413;-79
2024/03/21 08:42:16;;;;;;;57.40;34.90;;;12.40;99.90;;;;;;838181;168;26401;-79
2024/03/21 08:44:43;;;;;;;59.70;35.80;;;12.30;99.90;;;;;;841380;170;26416;-80
2024/03/21 08:47:09;;;;;;;59.37;33.60;;;12.40;99.90;;;;;;840774;170;26377;-80
2024/03/21 08:49:36;;;;;;;62.40;37.07;;;12.30;99.90;;;;;;840782;168;26379;-80
2024/03/21 08:52:03;;;;;;;64.17;37.80;;;12.10;99.90;;;;;;839896;171;26975;-80
2024/03/21 08:54:30;;;;;;;64.20;37.30;;;12.20;99.90;;;;;;815044;170;26525;-78
2024/03/21 08:57:00;;;;;;;57.47;34.67;;;12.30;99.90;;;;;;815680;174;26499;-80
2024/03/21 08:59:31;;;;;;;57.57;34.00;;;12.20;99.90;;;;;;821019;174;26449;-79
2024/03/21 09:02:04;;;;;;;56.40;34.27;;;12.20;99.90;;;;;;812306;174;26407;-79
2024/03/21 09:04:30;;;;;;;52.53;31.27;;;12.20;99.90;;;;;;812250;174;26455;-79
2024/03/21 09:07:04;;;;;;;49.03;29.97;;;12.20;99.90;;;;;;806880;174;26461;-79
2024/03/21 09:09:38;;;;;;;47.03;30.90;;;12.40;99.90;;;;;;815082;174;26704;-78
2024/03/21 09:12:11;;;;;;;53.03;33.33;;;12.30;99.90;;;;;;817055;174;26405;-80
2024/03/21 09:14:38;;;;;;;45.33;27.13;;;12.30;99.90;;;;;;815059;173;26428;-79
2024/03/21 09:17:05;;;;;;;38.53;25.83;;;12.20;99.90;;;;;;816644;174;26393;-78
2024/03/21 09:19:31;;;;;;;41.20;26.63;;;12.20;99.90;;;;;;813898;174;26402;-80
2024/03/21 09:21:58;;;;;;;38.03;25.77;;;12.20;99.90;;;;;;819897;174;26436;-78
2024/03/21 09:24:27;;;;;;;44.83;27.93;;;12.30;99.90;;;;;;815293;174;26425;-79
2024/03/21 09:26:51;;;;;;;44.63;26.27;;;12.50;99.90;;;;;;810691;174;26415;-79
2024/03/21 09:29:18;;;;;;;36.40;23.43;;;12.70;99.90;;;;;;816649;174;26436;-81
2024/03/21 09:31:44;;;;;;;38.40;25.97;;;12.80;99.90;;;;;;814548;174;27650;-79
2024/03/21 09:34:11;;;;;;;36.97;25.37;;;12.90;99.90;;;;;;815374;174;26420;-78
2024/03/21 09:36:37;;;;;;;36.67;23.60;;;12.80;99.90;;;;;;814400;174;26422;-79
2024/03/21 09:39:06;;;;;;;33.13;22.47;;;12.70;99.90;;;;;;816735;174;26450;-80
2024/03/21 09:41:31;;;;;;;34.00;22.57;;;12.80;99.90;;;;;;812990;174;26429;-79
2024/03/21 09:43:58;;;;;;;36.10;21.40;;;12.90;99.90;;;;;;814304;174;26896;-80
2024/03/21 09:46:24;;;;;;;32.70;20.73;;;12.90;99.90;;;;;;815491;174;26436;-80
2024/03/21 09:48:51;;;;;;;30.20;19.53;;;12.90;99.90;;;;;;816143;174;26440;-79
2024/03/21 09:51:20;;;;;;;30.20;19.70;;;13.00;99.90;;;;;;810602;174;26418;-79
2024/03/21 09:53:47;;;;;;;34.07;21.27;;;12.90;99.90;;;;;;815756;174;26427;-79
2024/03/21 09:56:15;;;;;;;31.63;19.97;;;13.00;99.90;;;;;;818293;173;26451;-80
2024/03/21 09:58:42;;;;;;;30.27;19.83;;;13.00;99.90;;;;;;815212;173;26966;-82
2024/03/21 10:01:28;;;;;;;27.00;19.57;;;12.90;99.90;;;;;;815533;173;26927;-80
2024/03/21 10:03:56;;;;;;;28.20;19.27;;;13.10;99.90;;;;;;820500;173;26989;-80
2024/03/21 10:06:24;;;;;;;26.73;18.27;;;13.40;99.90;;;;;;814838;174;26452;-79
2024/03/21 10:08:55;;;;;;;26.03;17.83;;;13.80;99.90;;;;;;817727;174;26447;-79
2024/03/21 10:11:22;;;;;;;20.93;14.30;;;14.10;99.90;;;;;;823277;174;26487;-80
2024/03/21 10:13:51;;;;;;;26.00;14.73;;;14.20;99.90;;;;;;814381;174;26422;-81
2024/03/21 10:16:18;;;;;;;22.10;13.10;;;14.50;99.90;;;;;;822336;174;26405;-80
2024/03/21 10:18:46;;;;;;;20.53;14.20;;;14.60;99.90;;;;;;815896;174;26600;-82
2024/03/21 10:21:16;;;;;;;22.20;13.43;;;14.90;99.90;;;;;;816616;174;26406;-80
2024/03/21 10:23:48;;;;;;;19.77;14.17;;;14.70;99.90;;;;;;816383;174;26424;-79
2024/03/21 10:26:15;;;;;;;22.63;12.70;;;15.00;99.90;;;;;;815312;174;26419;-79
2024/03/21 10:28:42;;;;;;;20.97;12.87;;;15.00;99.90;;;;;;822051;174;26406;-80
2024/03/21 10:31:13;;;;;;;18.30;12.97;;;14.80;99.90;;;;;;819592;174;26440;-80
2024/03/21 10:33:40;;;;;;;19.10;13.83;;;14.80;99.90;;;;;;814768;174;26783;-80
2024/03/21 10:36:07;;;;;;;19.57;13.97;;;15.00;99.90;;;;;;816902;174;26438;-79
2024/03/21 10:38:33;;;;;;;16.17;12.10;;;15.30;99.90;;;;;;812504;175;26404;-79
2024/03/21 10:41:00;;;;;;;15.63;12.50;;;15.00;99.90;;;;;;810937;174;26412;-81
2024/03/21 10:43:27;;;;;;;18.00;12.30;;;14.80;99.90;;;;;;817209;174;26419;-80
2024/03/21 10:45:54;;;;;;;17.93;12.03;;;14.70;99.90;;;;;;817218;174;26605;-79
2024/03/21 10:48:34;;;;;;;19.17;13.57;;;14.90;99.90;;;;;;814594;174;26428;-80
2024/03/21 10:51:11;;;;;;;21.40;14.00;;;14.70;99.90;;;;;;815143;174;26478;-80
2024/03/21 10:53:38;;;;;;;25.53;16.67;;;15.60;99.90;;;;;;817315;174;26425;-81
2024/03/21 10:56:04;;;;;;;21.23;14.30;;;16.50;99.80;;;;;;811399;174;26406;-81
2024/03/21 10:58:31;;;;;;;19.30;12.90;;;17.00;97.10;;;;;;816414;174;26405;-79
2024/03/21 11:00:58;;;;;;;19.40;13.20;;;17.00;96.20;;;;;;816666;174;26432;-80
2024/03/21 11:03:24;;;;;;;20.27;13.10;;;16.10;97.80;;;;;;820551;174;26585;-79
2024/03/21 11:05:55;;;;;;;23.50;15.43;;;15.50;99.40;;;;;;816154;174;26444;-80
2024/03/21 11:08:26;;;;;;;19.70;12.80;;;15.50;99.90;;;;;;821590;173;26534;-79
2024/03/21 11:10:53;;;;;;;19.00;13.90;;;15.80;99.90;;;;;;819654;173;26409;-81
2024/03/21 11:13:20;;;;;;;19.10;13.70;;;15.50;99.90;;;;;;808722;176;26573;-80
2024/03/21 11:15:46;;;;;;;16.03;12.17;;;15.40;99.90;;;;;;821250;174;26762;-81
2024/03/21 11:18:13;;;;;;;16.43;12.63;;;15.10;99.90;;;;;;815241;174;26441;-80
2024/03/21 11:20:42;;;;;;;16.03;11.50;;;14.80;99.90;;;;;;812058;174;26441;-80
2024/03/21 11:23:12;;;;;;;21.03;13.27;;;14.80;99.90;;;;;;817254;174;26451;-79
2024/03/21 11:25:40;;;;;;;14.73;10.90;;;14.70;99.90;;;;;;821141;174;26414;-80
2024/03/21 11:28:09;;;;;;;13.13;8.67;;;15.80;99.90;;;;;;820962;174;26415;-80
2024/03/21 11:30:41;;;;;;;15.67;9.17;;;15.60;99.00;;;;;;806949;175;26435;-78
2024/03/21 11:33:09;;;;;;;10.70;9.00;;;15.70;99.40;;;;;;817177;174;26441;-80
2024/03/21 11:35:39;;;;;;;11.67;8.70;;;15.50;99.90;;;;;;820122;174;26414;-80
2024/03/21 11:38:08;;;;;;;12.07;9.13;;;15.50;99.90;;;;;;818000;174;26395;-81
2024/03/21 11:40:35;;;;;;;10.90;8.30;;;15.70;99.90;;;;;;815992;174;26404;-82
2024/03/21 11:43:07;;;;;;;10.43;7.40;;;16.00;99.90;;;;;;818586;174;26418;-81
2024/03/21 11:45:36;;;;;;;8.93;7.60;;;15.30;99.90;;;;;;818879;174;26421;-81
2024/03/21 11:48:08;;;;;;;12.53;8.50;;;15.20;99.90;;;;;;811057;174;26409;-82
2024/03/21 11:50:40;;;;;;;10.60;7.83;;;15.50;99.90;;;;;;812450;174;26536;-80
2024/03/21 11:53:09;;;;;;;9.87;7.43;;;15.80;99.90;;;;;;809670;174;26472;-81
2024/03/21 11:55:40;;;;;;;8.40;6.87;;;15.70;99.80;;;;;;814098;174;26409;-81
2024/03/21 11:58:08;;;;;;;9.00;7.67;;;15.70;99.30;;;;;;818101;174;26457;-81
2024/03/21 12:00:35;;;;;;;8.73;7.00;;;16.90;96.60;;;;;;821861;174;26432;-80
2024/03/21 12:03:02;;;;;;;10.20;7.70;;;16.90;95.30;;;;;;808846;175;26474;-81
2024/03/21 12:05:31;;;;;;;10.33;8.70;;;16.90;94.90;;;;;;810959;174;26409;-81
2024/03/21 12:07:58;;;;;;;13.60;10.20;;;16.30;96.00;;;;;;816583;174;26974;-79
2024/03/21 12:10:32;;;;;;;14.90;9.93;;;15.90;96.90;;;;;;820796;174;26968;-79
2024/03/21 12:12:58;;;;;;;14.17;10.90;;;15.60;98.70;;;;;;812254;174;26405;-81
2024/03/21 12:15:30;;;;;;;12.20;9.93;;;15.70;99.20;;;;;;810245;174;26445;-80
2024/03/21 12:17:57;;;;;;;24.43;15.53;;;16.20;97.60;;;;;;819835;174;26471;-81
2024/03/21 12:20:25;;;;;;;14.73;12.03;;;16.40;97.20;;;;;;823064;173;26576;-82
2024/03/21 12:22:54;;;;;;;12.57;10.73;;;15.90;97.30;;;;;;815222;173;26404;-80
2024/03/21 12:25:23;;;;;;;12.00;10.40;;;15.80;99.60;;;;;;817448;172;26974;-79
2024/03/21 12:27:56;;;;;;;12.33;11.03;;;16.20;97.90;;;;;;810447;174;26426;-79
2024/03/21 12:30:26;;;;;;;13.70;11.77;;;16.70;96.20;;;;;;815088;174;26571;-80
2024/03/21 12:32:57;;;;;;;14.60;10.47;;;16.20;96.90;;;;;;811924;173;26414;-81
2024/03/21 12:35:27;;;;;;;12.53;10.73;;;15.80;98.20;;;;;;814584;174;26404;-82